This is the latest recevied weather packets stored in our database for station/object YO2LDK-13. If no packets are shown the sender has not sent any weather packets the latest 10 day(s).
| Time | Temp. | Humidity | Pressure | Rain* | Wind** | Luminosity | Snow |
|---|---|---|---|---|---|---|---|
| 1778004321 | 19.44° C | 39% | 1000.7 hPa | 0 mm | - | 0 W/m² | - |
| 1778002822 | 21.67° C | 35% | 1000.3 hPa | 0 mm | - | 4 W/m² | - |
| 1778002521 | 22.22° C | 35% | 1000.3 hPa | 0 mm | - | 5 W/m² | - |
| 1778002220 | 22.22° C | 33% | 1000.3 hPa | 0 mm | - | 7 W/m² | - |
| 1778001919 | 22.22° C | 32% | 1000.7 hPa | 0 mm | - | 10 W/m² | - |
| 1778001620 | 22.78° C | 35% | 1000.3 hPa | 0 mm | - | 11 W/m² | - |
| 1778001319 | 23.33° C | 32% | 1000.3 hPa | 0 mm | - | 14 W/m² | - |
| 1778001020 | 23.33° C | 30% | 1000.3 hPa | 0 mm | - | 15 W/m² | - |
| 1777999520 | 25.56° C | 25% | 1000.3 hPa | 0 mm | - | 18 W/m² | - |
| 1777999220 | 26.11° C | 25% | 1000.7 hPa | 0 mm | - | 18 W/m² | - |
| 1777998920 | 26.11° C | 22% | 1000.3 hPa | 0 mm | - | 19 W/m² | - |
| 1777998621 | 26.67° C | 22% | 1000.7 hPa | 0 mm | - | 23 W/m² | - |
| 1777998320 | 27.22° C | 20% | 1000.7 hPa | 0 mm | - | 34 W/m² | - |
| 1777997420 | 27.78° C | 20% | 1000.7 hPa | 0 mm | - | 70 W/m² | - |
| 1777997119 | 28.33° C | 21% | 1000.7 hPa | 0 mm | - | 129 W/m² | - |
| 1777995321 | 27.22° C | 21% | 1001 hPa | 0 mm | - | 169 W/m² | - |
| 1777995020 | 26.67° C | 23% | 1001 hPa | 0 mm | - | 208 W/m² | - |
| 1777994719 | 26.67° C | 23% | 1001 hPa | 0 mm | - | 174 W/m² | - |
| 1777994421 | 26.11° C | 25% | 1001 hPa | 0 mm | - | 141 W/m² | - |
| 1777994121 | 26.11° C | 24% | 1001 hPa | 0 mm | - | 105 W/m² | - |
| 1777993820 | 26.67° C | 24% | 1001 hPa | 0 mm | - | 95 W/m² | - |
| 1777993521 | 26.67° C | 24% | 1001 hPa | 0 mm | - | 107 W/m² | - |
| 1777991720 | 27.78° C | 24% | 1001 hPa | 0 mm | - | 242 W/m² | - |
| 1777991119 | 27.78° C | 21% | 1001.4 hPa | 0 mm | - | 390 W/m² | - |
| 1777990820 | 27.78° C | 22% | 1001 hPa | 0 mm | - | 439 W/m² | - |
* Rain latest hour (hover to see other rain measurements)
** Current wind speed in m/s (hover to see current wind gust speed)